Time;durP1;ratioP1;P1;durP2;ratioP2;P2;SDS_P1;SDS_P2;PMS_P1;PMS_P2;Temp;Humidity;BMP_temperature;BMP_pressure;BME280_temperature;BME280_humidity;BME280_pressure;Samples;Min_cycle;Max_cycle;Signal;HPM_P1;HPM_P2
2024/03/12 17:10:02;;;;;;;55.47;27.27;;;10.10;99.90;;;;;;5095604;27;20668;-75
2024/03/12 17:12:29;;;;;;;49.95;25.85;;;10.10;99.90;;;;;;5079267;28;20282;-73
2024/03/12 17:14:55;;;;;;;53.67;29.35;;;10.10;99.90;;;;;;5078717;28;20193;-73
2024/03/12 17:17:24;;;;;;;50.78;26.00;;;10.10;99.90;;;;;;5078421;28;20294;-73
2024/03/12 17:19:53;;;;;;;51.50;25.58;;;10.10;99.90;;;;;;5077089;28;20189;-71
2024/03/12 17:22:20;;;;;;;48.92;25.50;;;10.10;99.90;;;;;;5076037;28;20190;-71
2024/03/12 17:24:50;;;;;;;51.40;26.00;;;10.00;99.90;;;;;;5078904;28;20277;-72
2024/03/12 17:27:16;;;;;;;47.53;24.58;;;10.00;99.90;;;;;;5077803;28;20186;-72
2024/03/12 17:29:43;;;;;;;48.92;23.88;;;10.00;99.90;;;;;;5076111;28;20315;-73
2024/03/12 17:32:12;;;;;;;45.78;24.13;;;10.00;99.90;;;;;;5077788;28;20204;-73
2024/03/12 17:34:39;;;;;;;50.72;24.77;;;10.00;99.90;;;;;;5077519;28;20277;-73
2024/03/12 17:37:06;;;;;;;49.25;24.65;;;10.00;99.90;;;;;;5077875;28;20193;-72
2024/03/12 17:39:34;;;;;;;51.17;24.05;;;10.00;99.90;;;;;;5077040;28;20194;-71
2024/03/12 17:42:00;;;;;;;46.20;24.20;;;10.00;99.90;;;;;;5077887;28;20213;-72
2024/03/12 17:44:27;;;;;;;53.05;26.42;;;10.00;99.90;;;;;;5078284;28;20517;-73
2024/03/12 17:46:57;;;;;;;50.05;25.73;;;9.90;99.90;;;;;;5078513;28;20686;-74
2024/03/12 17:49:38;;;;;;;46.55;25.55;;;9.90;99.90;;;;;;5078539;28;20631;-72
2024/03/12 17:52:08;;;;;;;46.33;26.25;;;9.90;99.90;;;;;;5094221;28;20551;-71
2024/03/12 17:54:37;;;;;;;45.80;25.88;;;9.90;99.90;;;;;;5078394;28;20197;-70
2024/03/12 17:57:09;;;;;;;55.80;27.20;;;9.90;99.90;;;;;;5077291;28;20211;-73
2024/03/12 17:59:38;;;;;;;47.15;26.13;;;9.80;99.90;;;;;;5059816;28;20198;-72
2024/03/12 18:02:09;;;;;;;55.58;26.73;;;9.80;99.90;;;;;;5076920;28;20190;-72
2024/03/12 18:04:36;;;;;;;54.42;26.33;;;9.80;99.90;;;;;;5078015;28;20190;-71
2024/03/12 18:07:07;;;;;;;49.60;24.88;;;9.70;99.90;;;;;;5076679;28;20786;-73
2024/03/12 18:09:34;;;;;;;51.38;25.42;;;9.80;99.90;;;;;;5077483;28;20230;-72
2024/03/12 18:12:00;;;;;;;53.60;25.50;;;9.70;99.90;;;;;;5077761;28;20689;-72
2024/03/12 18:14:29;;;;;;;41.35;23.60;;;9.70;99.90;;;;;;5060133;28;20208;-71
2024/03/12 18:16:54;;;;;;;52.42;25.88;;;9.70;99.90;;;;;;5078816;28;20205;-73
2024/03/12 18:19:20;;;;;;;50.80;26.08;;;9.70;99.90;;;;;;5077801;28;20197;-72
2024/03/12 18:21:46;;;;;;;48.17;25.45;;;9.70;99.90;;;;;;5064204;28;20187;-75
2024/03/12 18:24:12;;;;;;;45.63;26.25;;;9.70;99.90;;;;;;5063730;28;20190;-72
2024/03/12 18:26:41;;;;;;;53.00;26.88;;;9.70;99.90;;;;;;5063726;28;20202;-74
2024/03/12 18:29:08;;;;;;;52.20;27.33;;;9.70;99.90;;;;;;5061587;28;20223;-73
2024/03/12 18:31:35;;;;;;;56.95;28.83;;;9.70;99.90;;;;;;5062220;28;20194;-72
2024/03/12 18:34:01;;;;;;;53.40;28.45;;;9.70;99.90;;;;;;5046105;28;20182;-73
2024/03/12 18:36:26;;;;;;;54.97;28.85;;;9.60;99.90;;;;;;5049154;28;20281;-70
2024/03/12 18:38:52;;;;;;;53.15;27.58;;;9.60;99.90;;;;;;5063018;28;20209;-73
2024/03/12 18:41:18;;;;;;;56.10;27.70;;;9.60;99.90;;;;;;5079416;28;20554;-71
2024/03/12 18:43:44;;;;;;;45.42;25.60;;;9.50;99.90;;;;;;5063312;28;20285;-72
2024/03/12 18:46:10;;;;;;;52.53;26.02;;;9.50;99.90;;;;;;5063727;28;20193;-77
2024/03/12 18:48:36;;;;;;;49.83;27.35;;;9.50;99.90;;;;;;5061760;28;20753;-73
2024/03/12 18:51:02;;;;;;;50.97;26.48;;;9.50;99.90;;;;;;5063090;28;20190;-72
2024/03/12 18:53:28;;;;;;;47.80;27.30;;;9.50;99.90;;;;;;5062292;28;20213;-72
2024/03/12 18:55:57;;;;;;;48.10;27.35;;;9.50;99.90;;;;;;5063373;28;20191;-78
2024/03/12 18:58:23;;;;;;;49.10;27.77;;;9.40;99.90;;;;;;5062127;28;20203;-72
2024/03/12 19:00:49;;;;;;;57.67;29.95;;;9.50;99.90;;;;;;5063485;28;20194;-75
2024/03/12 19:03:17;;;;;;;45.03;27.95;;;9.50;99.90;;;;;;5063995;28;20206;-77
2024/03/12 19:05:47;;;;;;;51.97;28.85;;;9.40;99.90;;;;;;5063602;28;20179;-78
2024/03/12 19:08:13;;;;;;;54.00;29.60;;;9.40;99.90;;;;;;5063813;28;21070;-76
2024/03/12 19:10:39;;;;;;;54.20;30.30;;;9.40;99.90;;;;;;5062906;28;20627;-77
2024/03/12 19:13:06;;;;;;;55.85;32.38;;;9.40;99.90;;;;;;5062849;28;20198;-75
2024/03/12 19:15:42;;;;;;;52.75;29.17;;;9.30;99.90;;;;;;5063231;28;20198;-76
2024/03/12 19:18:13;;;;;;;53.55;30.00;;;9.30;99.90;;;;;;5063654;28;20212;-76
2024/03/12 19:20:40;;;;;;;55.05;30.33;;;9.30;99.90;;;;;;5062801;28;20597;-69
2024/03/12 19:23:08;;;;;;;51.75;30.27;;;9.30;99.90;;;;;;5061360;28;20210;-72
2024/03/12 19:25:34;;;;;;;51.38;29.75;;;9.30;99.90;;;;;;5062662;28;20197;-72
2024/03/12 19:28:02;;;;;;;51.70;29.67;;;9.30;99.90;;;;;;5061050;28;20952;-76
2024/03/12 19:30:29;;;;;;;53.80;29.70;;;9.30;99.90;;;;;;5060449;28;20187;-75
2024/03/12 19:32:55;;;;;;;52.92;30.88;;;9.20;99.90;;;;;;5060731;28;20674;-71
2024/03/12 19:35:21;;;;;;;59.33;31.65;;;9.20;99.90;;;;;;5061939;28;20183;-73
2024/03/12 19:37:48;;;;;;;55.30;31.15;;;9.20;99.90;;;;;;5060900;28;20183;-73
2024/03/12 19:40:20;;;;;;;59.30;31.23;;;9.20;99.90;;;;;;5061855;28;20655;-69
2024/03/12 19:42:48;;;;;;;59.97;34.38;;;9.20;99.90;;;;;;5060880;28;20221;-71
2024/03/12 19:45:19;;;;;;;63.95;34.08;;;9.20;99.90;;;;;;5060901;28;20663;-72
2024/03/12 19:47:46;;;;;;;59.80;32.95;;;9.10;99.90;;;;;;5061931;28;20259;-70
2024/03/12 19:50:24;;;;;;;59.97;34.58;;;9.10;99.90;;;;;;5050325;28;20198;-75
2024/03/12 19:52:52;;;;;;;69.57;36.63;;;9.10;99.90;;;;;;5061868;28;20269;-72
2024/03/12 19:55:20;;;;;;;63.60;36.38;;;9.10;99.90;;;;;;5078200;28;20569;-73
2024/03/12 19:57:51;;;;;;;60.15;35.85;;;9.10;99.90;;;;;;5062275;28;20255;-74
2024/03/12 20:00:19;;;;;;;67.85;36.65;;;9.00;99.90;;;;;;5061224;28;20232;-72
2024/03/12 20:02:52;;;;;;;69.95;37.05;;;9.00;99.90;;;;;;5062090;28;20187;-73
2024/03/12 20:05:21;;;;;;;65.95;38.42;;;9.00;99.90;;;;;;5062145;28;20182;-72
2024/03/12 20:07:51;;;;;;;71.88;38.50;;;8.90;99.90;;;;;;5062330;28;20225;-71
2024/03/12 20:10:17;;;;;;;71.40;38.92;;;8.90;99.90;;;;;;5061838;28;20624;-70
2024/03/12 20:12:44;;;;;;;72.05;40.17;;;8.90;99.90;;;;;;5062000;28;20218;-72
2024/03/12 20:15:11;;;;;;;66.55;39.33;;;8.80;99.90;;;;;;5060950;28;20194;-72
2024/03/12 20:17:41;;;;;;;70.93;39.25;;;8.80;99.90;;;;;;5043397;28;20189;-73
2024/03/12 20:20:09;;;;;;;68.63;40.45;;;8.80;99.90;;;;;;5060436;28;20209;-72
2024/03/12 20:22:39;;;;;;;74.95;41.15;;;8.70;99.90;;;;;;5061368;28;20656;-72
2024/03/12 20:25:06;;;;;;;72.93;41.35;;;8.70;99.90;;;;;;5060792;28;21266;-72
2024/03/12 20:27:33;;;;;;;76.72;40.20;;;8.60;99.90;;;;;;5060508;28;20256;-70
2024/03/12 20:29:58;;;;;;;83.05;47.30;;;8.60;99.90;;;;;;5059374;28;20217;-73
2024/03/12 20:32:27;;;;;;;90.85;53.70;;;8.50;99.90;;;;;;5061171;28;20182;-71
2024/03/12 20:34:53;;;;;;;75.95;42.92;;;8.50;99.90;;;;;;5060780;28;20190;-72
2024/03/12 20:37:20;;;;;;;82.22;44.00;;;8.40;99.90;;;;;;5059435;28;20210;-73
2024/03/12 20:39:46;;;;;;;83.18;44.05;;;8.40;99.90;;;;;;5059151;28;20240;-71
2024/03/12 20:42:13;;;;;;;80.57;44.15;;;8.30;99.90;;;;;;5059370;28;20628;-71
2024/03/12 20:44:40;;;;;;;83.72;45.85;;;8.30;99.90;;;;;;5059123;28;20228;-72
2024/03/12 20:47:06;;;;;;;83.85;47.58;;;8.20;99.90;;;;;;5060050;28;20193;-73
2024/03/12 20:49:35;;;;;;;88.82;47.97;;;8.20;99.90;;;;;;5059410;28;20290;-73
2024/03/12 20:52:04;;;;;;;84.97;46.60;;;8.20;99.90;;;;;;5061114;28;20193;-71
2024/03/12 20:54:30;;;;;;;88.25;48.95;;;8.10;99.90;;;;;;5060802;28;20205;-72
2024/03/12 20:56:56;;;;;;;91.82;48.35;;;8.00;99.90;;;;;;5060420;28;20673;-72
2024/03/12 20:59:23;;;;;;;89.95;49.25;;;8.00;99.90;;;;;;5060900;28;20198;-73
2024/03/12 21:01:50;;;;;;;94.35;49.45;;;7.90;99.90;;;;;;5060250;28;20608;-72
2024/03/12 21:04:16;;;;;;;90.93;49.45;;;7.90;99.90;;;;;;5060741;28;20289;-71
2024/03/12 21:06:43;;;;;;;95.47;50.25;;;7.80;99.90;;;;;;5060159;28;20289;-71
2024/03/12 21:09:12;;;;;;;100.50;51.22;;;7.80;99.90;;;;;;5060701;28;20222;-72
2024/03/12 21:11:41;;;;;;;96.63;51.33;;;7.70;99.90;;;;;;5058328;28;20753;-71
2024/03/12 21:14:07;;;;;;;95.22;51.42;;;7.70;99.90;;;;;;5042991;28;21181;-72
2024/03/12 21:16:33;;;;;;;102.88;51.67;;;7.70;99.90;;;;;;5047228;28;20214;-71
2024/03/12 21:18:59;;;;;;;99.80;52.40;;;7.60;99.90;;;;;;5059950;28;20190;-71
2024/03/12 21:21:25;;;;;;;101.13;49.85;;;7.60;99.90;;;;;;5060924;28;20650;-71
2024/03/12 21:23:51;;;;;;;98.78;52.03;;;7.50;99.90;;;;;;5060456;28;20198;-71
2024/03/12 21:26:23;;;;;;;92.70;50.63;;;7.50;99.90;;;;;;5060306;28;20684;-71
2024/03/12 21:28:52;;;;;;;92.40;49.97;;;7.50;99.90;;;;;;5060755;28;20210;-72
2024/03/12 21:31:18;;;;;;;105.65;52.30;;;7.40;99.90;;;;;;5060838;28;21243;-71
2024/03/12 21:33:44;;;;;;;102.38;52.22;;;7.40;99.90;;;;;;5042863;28;20198;-71
2024/03/12 21:36:13;;;;;;;112.40;53.08;;;7.40;99.90;;;;;;5060565;28;20240;-71
2024/03/12 21:38:40;;;;;;;102.57;53.00;;;7.30;99.90;;;;;;5059988;28;20190;-71
2024/03/12 21:41:06;;;;;;;103.18;51.75;;;7.30;99.90;;;;;;5060730;28;20555;-71
2024/03/12 21:43:32;;;;;;;98.22;50.38;;;7.20;99.90;;;;;;5061201;28;20190;-72
2024/03/12 21:45:58;;;;;;;104.15;52.88;;;7.20;99.90;;;;;;5061050;28;20202;-72
2024/03/12 21:48:24;;;;;;;100.35;51.30;;;7.10;99.90;;;;;;5060825;28;20221;-71
2024/03/12 21:50:54;;;;;;;104.28;51.90;;;7.10;99.90;;;;;;5060819;28;20195;-71
2024/03/12 21:53:20;;;;;;;99.43;51.17;;;7.10;99.90;;;;;;5059245;28;20264;-72
2024/03/12 21:55:47;;;;;;;110.70;52.60;;;7.10;99.90;;;;;;5061511;28;20202;-72
2024/03/12 21:58:14;;;;;;;104.53;52.50;;;7.00;99.90;;;;;;5064387;28;20195;-71
2024/03/12 22:00:40;;;;;;;107.38;53.33;;;7.00;99.90;;;;;;5049921;28;20289;-70
2024/03/12 22:03:07;;;;;;;108.32;52.90;;;7.00;99.90;;;;;;5064323;28;20331;-73
2024/03/12 22:05:34;;;;;;;112.63;53.75;;;7.00;99.90;;;;;;5063283;28;20601;-72
2024/03/12 22:08:00;;;;;;;115.57;53.67;;;6.90;99.90;;;;;;5062353;28;20230;-71
2024/03/12 22:10:26;;;;;;;112.25;53.70;;;6.90;99.90;;;;;;5064010;28;20202;-71
2024/03/12 22:12:52;;;;;;;117.40;54.40;;;6.90;99.90;;;;;;5064486;28;20179;-73
2024/03/12 22:15:19;;;;;;;112.18;53.80;;;6.90;99.90;;;;;;5063869;28;20190;-73
2024/03/12 22:17:45;;;;;;;115.47;54.50;;;6.80;99.90;;;;;;5062255;28;20190;-71
2024/03/12 22:20:17;;;;;;;108.10;53.65;;;6.80;99.90;;;;;;5046510;28;20190;-72
2024/03/12 22:22:44;;;;;;;110.10;52.88;;;6.80;99.90;;;;;;5062574;28;20239;-72
2024/03/12 22:25:12;;;;;;;105.55;53.20;;;6.80;99.90;;;;;;5064043;28;20221;-71
2024/03/12 22:27:42;;;;;;;112.95;53.45;;;6.70;99.90;;;;;;5063162;28;20187;-72
2024/03/12 22:30:10;;;;;;;108.45;53.13;;;6.80;99.90;;;;;;5062747;28;20746;-71
2024/03/12 22:32:36;;;;;;;117.15;54.53;;;6.70;99.90;;;;;;5063625;28;20286;-71
2024/03/12 22:35:04;;;;;;;124.40;55.83;;;6.70;99.90;;;;;;5064126;28;20265;-72
2024/03/12 22:37:30;;;;;;;109.72;53.53;;;6.70;99.90;;;;;;5063296;28;20244;-71
2024/03/12 22:39:57;;;;;;;116.57;55.35;;;6.70;99.90;;;;;;5063364;28;20199;-71
2024/03/12 22:42:25;;;;;;;113.80;53.15;;;6.70;99.90;;;;;;5045327;28;20198;-72
2024/03/12 22:44:54;;;;;;;113.45;55.70;;;6.60;99.90;;;;;;5063828;28;20190;-71
2024/03/12 22:47:20;;;;;;;109.38;52.88;;;6.60;99.90;;;;;;5063687;28;20198;-71
2024/03/12 22:49:47;;;;;;;115.07;53.97;;;6.60;99.90;;;;;;5063599;28;20223;-70
2024/03/12 22:52:13;;;;;;;110.38;54.40;;;6.60;99.90;;;;;;5062258;28;20581;-71
2024/03/12 22:54:42;;;;;;;111.70;53.13;;;6.50;99.90;;;;;;5061662;28;20255;-71
2024/03/12 22:57:08;;;;;;;112.70;53.45;;;6.60;99.90;;;;;;5063308;28;20194;-72
2024/03/12 22:59:35;;;;;;;117.00;54.05;;;6.50;99.90;;;;;;5063361;28;20198;-70
2024/03/12 23:02:02;;;;;;;120.13;54.15;;;6.50;99.90;;;;;;5063462;28;20198;-69
2024/03/12 23:04:33;;;;;;;112.78;52.75;;;6.50;99.90;;;;;;5063405;28;20194;-70
2024/03/12 23:06:59;;;;;;;115.90;52.65;;;6.50;99.90;;;;;;5063168;28;20595;-72
2024/03/12 23:09:25;;;;;;;115.55;54.75;;;6.50;99.90;;;;;;5062078;28;20243;-72
2024/03/12 23:11:55;;;;;;;120.13;52.90;;;6.50;99.90;;;;;;5062897;28;20201;-72
2024/03/12 23:14:22;;;;;;;110.10;50.33;;;6.50;99.90;;;;;;5061709;28;20244;-72
2024/03/12 23:16:48;;;;;;;105.78;49.33;;;6.50;99.90;;;;;;5062803;28;20179;-71
2024/03/12 23:19:13;;;;;;;105.15;48.17;;;6.50;99.90;;;;;;5061479;28;20285;-72
2024/03/12 23:21:39;;;;;;;96.43;45.40;;;6.60;99.90;;;;;;5063058;28;20281;-71
2024/03/12 23:24:05;;;;;;;106.30;48.22;;;6.60;99.90;;;;;;5063086;28;20190;-72
2024/03/12 23:26:31;;;;;;;104.22;48.10;;;6.60;99.90;;;;;;5062883;28;20187;-71
2024/03/12 23:28:58;;;;;;;102.05;48.50;;;6.60;99.90;;;;;;5062487;28;20344;-71
2024/03/12 23:31:25;;;;;;;112.03;50.45;;;6.60;99.90;;;;;;5060618;28;20202;-70
2024/03/12 23:33:52;;;;;;;113.22;50.72;;;6.60;99.90;;;;;;5061066;28;20208;-70
2024/03/12 23:36:21;;;;;;;97.50;47.13;;;6.60;99.90;;;;;;5062911;28;20190;-72
2024/03/12 23:38:50;;;;;;;107.07;49.40;;;6.50;99.90;;;;;;5061948;28;20251;-71
2024/03/12 23:41:16;;;;;;;111.90;52.53;;;6.50;99.90;;;;;;5062364;28;20205;-71
2024/03/12 23:43:46;;;;;;;123.22;54.25;;;6.50;99.90;;;;;;5060996;28;20195;-71
2024/03/12 23:46:13;;;;;;;118.78;53.58;;;6.50;99.90;;;;;;5062773;28;20198;-72
2024/03/12 23:48:43;;;;;;;114.60;53.97;;;6.40;99.90;;;;;;5061881;28;20218;-72
2024/03/12 23:51:10;;;;;;;112.78;52.75;;;6.40;99.90;;;;;;5061921;28;20190;-71
2024/03/12 23:53:36;;;;;;;116.43;53.38;;;6.40;99.90;;;;;;5061983;28;20316;-70
2024/03/12 23:56:06;;;;;;;122.75;55.42;;;6.40;99.90;;;;;;5062014;28;20194;-71
2024/03/12 23:58:33;;;;;;;111.63;53.47;;;6.40;99.90;;;;;;5061918;28;20202;-70
